createdAt,value
2023-05-10T00:01:09.442Z,98712.41
2023-05-10T00:03:35.984Z,98712.06
2023-05-10T00:06:02.500Z,98712.09
2023-05-10T00:08:28.899Z,98710.59
2023-05-10T00:10:55.457Z,98712.28
2023-05-10T00:13:23.384Z,98707.81
2023-05-10T00:15:49.940Z,98708.53
2023-05-10T00:18:16.418Z,98705.16
2023-05-10T00:20:42.819Z,98705.09
2023-05-10T00:23:09.235Z,98701.56
2023-05-10T00:25:35.706Z,98698.91
2023-05-10T00:28:02.714Z,98699.88
2023-05-10T00:30:29.144Z,98692.88
2023-05-10T00:32:55.593Z,98694.78
2023-05-10T00:35:22.630Z,98692.44
2023-05-10T00:37:49.393Z,98682.75
2023-05-10T00:40:16.087Z,98687.91
2023-05-10T00:42:42.676Z,98693.22
2023-05-10T00:45:09.603Z,98696.69
2023-05-10T00:47:36.204Z,98696.47
2023-05-10T00:50:02.936Z,98700.00
2023-05-10T00:52:30.108Z,98701.69
2023-05-10T00:54:56.846Z,98697.34
2023-05-10T00:57:24.127Z,98697.28
2023-05-10T00:59:50.662Z,98695.47
2023-05-10T01:02:17.099Z,98700.63
2023-05-10T01:04:44.457Z,98705.59
2023-05-10T01:07:11.517Z,98701.63
2023-05-10T01:09:38.069Z,98698.13
2023-05-10T01:12:04.894Z,98706.53
2023-05-10T01:14:31.630Z,98708.28
2023-05-10T01:16:58.228Z,98709.81
2023-05-10T01:19:26.418Z,98699.56
2023-05-10T01:22:05.513Z,98710.59
2023-05-10T01:24:45.715Z,98701.94
2023-05-10T01:27:35.930Z,98699.38
2023-05-10T01:30:23.774Z,98695.97
2023-05-10T01:33:01.984Z,98697.59
2023-05-10T01:35:31.446Z,98702.63
2023-05-10T01:37:57.773Z,98703.34
2023-05-10T01:40:32.291Z,98702.47
2023-05-10T01:43:04.511Z,98706.16
2023-05-10T01:45:52.116Z,98717.88
2023-05-10T01:48:19.427Z,98713.25
2023-05-10T01:50:47.054Z,98712.56
2023-05-10T01:53:14.353Z,98717.06
2023-05-10T01:55:44.510Z,98719.72
2023-05-10T01:58:14.636Z,98718.03
2023-05-10T02:00:46.003Z,98718.69
2023-05-10T02:03:12.981Z,98726.44
2023-05-10T02:05:39.984Z,98720.75
2023-05-10T02:08:08.418Z,98731.50
2023-05-10T02:10:36.313Z,98722.06
2023-05-10T02:13:04.230Z,98717.78
2023-05-10T02:15:30.885Z,98733.13
2023-05-10T02:17:58.417Z,98728.03
2023-05-10T02:20:25.738Z,98726.44
2023-05-10T02:22:53.867Z,98725.53
2023-05-10T02:25:21.362Z,98725.59
2023-05-10T02:27:48.701Z,98729.66
2023-05-10T02:30:15.928Z,98729.78
2023-05-10T02:32:42.934Z,98734.00
2023-05-10T02:35:10.834Z,98732.09
2023-05-10T02:37:38.740Z,98725.69
2023-05-10T02:40:06.759Z,98726.91
2023-05-10T02:42:37.423Z,98730.44
2023-05-10T02:45:09.089Z,98731.28
2023-05-10T02:47:35.598Z,98724.34
2023-05-10T02:50:02.267Z,98729.00
2023-05-10T02:52:31.858Z,98734.97
2023-05-10T02:55:02.168Z,98739.31
2023-05-10T02:57:33.434Z,98733.94
2023-05-10T03:00:01.069Z,98732.00
2023-05-10T03:02:27.962Z,98736.19
2023-05-10T03:04:54.435Z,98737.09
2023-05-10T03:07:22.172Z,98743.06
2023-05-10T03:09:49.721Z,98736.91
2023-05-10T03:12:26.632Z,98737.88
2023-05-10T03:15:08.559Z,98739.59
2023-05-10T03:18:17.477Z,98742.31
2023-05-10T03:20:48.362Z,98739.66
2023-05-10T03:23:22.952Z,98742.31
2023-05-10T03:25:51.188Z,98738.06
2023-05-10T03:28:18.915Z,98740.63
2023-05-10T03:30:45.931Z,98743.16
2023-05-10T03:33:13.716Z,98746.56
2023-05-10T03:35:40.281Z,98742.16
2023-05-10T03:38:06.721Z,98739.84
2023-05-10T03:40:33.393Z,98743.16
2023-05-10T03:43:00.239Z,98744.81
2023-05-10T03:45:26.774Z,98744.19
2023-05-10T03:47:53.260Z,98742.03
2023-05-10T03:50:20.006Z,98744.75
2023-05-10T03:52:46.699Z,98742.09
2023-05-10T03:55:13.148Z,98747.16
2023-05-10T03:57:39.534Z,98755.06
2023-05-10T04:00:06.564Z,98759.91
2023-05-10T04:02:33.081Z,98761.31
2023-05-10T04:04:59.528Z,98763.34
2023-05-10T04:07:25.958Z,98764.91
2023-05-10T04:09:52.392Z,98760.72
2023-05-10T04:12:18.781Z,98759.91
2023-05-10T04:14:45.193Z,98768.75
2023-05-10T04:17:11.947Z,98764.25
2023-05-10T04:19:38.473Z,98766.66
2023-05-10T04:22:04.926Z,98765.59
2023-05-10T04:24:31.385Z,98775.88
2023-05-10T04:26:58.046Z,98777.69
2023-05-10T04:29:24.508Z,98776.09
2023-05-10T04:31:51.888Z,98764.03
2023-05-10T04:34:18.428Z,98764.63
2023-05-10T04:36:44.894Z,98762.56
2023-05-10T04:39:11.662Z,98762.47
2023-05-10T04:41:38.680Z,98761.00
2023-05-10T04:44:05.230Z,98775.28
2023-05-10T04:46:31.661Z,98776.63
2023-05-10T04:48:58.171Z,98772.47
2023-05-10T04:51:25.609Z,98769.91
2023-05-10T04:54:04.657Z,98782.38
2023-05-10T04:56:32.731Z,98785.44
2023-05-10T04:58:59.155Z,98781.03
2023-05-10T05:01:25.648Z,98785.00
2023-05-10T05:03:53.856Z,98785.44
2023-05-10T05:06:21.963Z,98797.50
2023-05-10T05:08:50.252Z,98799.84
2023-05-10T05:11:16.857Z,98810.06
2023-05-10T05:13:43.284Z,98813.63
2023-05-10T05:16:09.733Z,98816.22
2023-05-10T05:18:36.131Z,98811.78
2023-05-10T05:21:02.854Z,98811.84
2023-05-10T05:23:29.269Z,98813.16
2023-05-10T05:25:55.728Z,98820.59
2023-05-10T05:28:22.237Z,98826.19
2023-05-10T05:30:48.657Z,98823.78
2023-05-10T05:33:17.201Z,98823.63
2023-05-10T05:35:51.586Z,98821.06
2023-05-10T05:38:18.470Z,98818.47
2023-05-10T05:40:46.464Z,98829.81
2023-05-10T05:43:13.169Z,98838.19
2023-05-10T05:45:39.699Z,98832.56
2023-05-10T05:48:06.278Z,98840.06
2023-05-10T05:50:32.859Z,98846.28
2023-05-10T05:52:59.329Z,98852.41
2023-05-10T05:55:27.049Z,98846.47
2023-05-10T05:57:53.548Z,98855.75
2023-05-10T06:00:19.953Z,98852.31
2023-05-10T06:02:46.417Z,98853.19
2023-05-10T06:05:15.169Z,98858.00
2023-05-10T06:07:43.197Z,98865.09
2023-05-10T06:10:10.228Z,98873.56
2023-05-10T06:12:36.916Z,98878.50
2023-05-10T06:15:04.348Z,98873.03
2023-05-10T06:17:30.795Z,98877.69
2023-05-10T06:19:57.448Z,98887.09
2023-05-10T06:22:23.933Z,98880.44
2023-05-10T06:24:50.691Z,98876.78
2023-05-10T06:27:17.103Z,98874.81
2023-05-10T06:29:43.551Z,98880.06
2023-05-10T06:32:09.972Z,98871.19
2023-05-10T06:34:36.534Z,98887.59
2023-05-10T06:37:04.399Z,98887.91
2023-05-10T06:39:30.837Z,98887.91
2023-05-10T06:41:57.279Z,98891.91
2023-05-10T06:44:26.769Z,98885.47
2023-05-10T06:46:54.414Z,98897.59
2023-05-10T06:49:21.480Z,98885.00
2023-05-10T06:51:47.891Z,98896.06
2023-05-10T06:54:14.369Z,98885.84
2023-05-10T06:56:40.872Z,98892.50
2023-05-10T06:59:07.700Z,98886.88
2023-05-10T07:01:34.289Z,98889.69
2023-05-10T07:04:00.727Z,98894.19
2023-05-10T07:06:33.253Z,98897.81
2023-05-10T07:09:00.378Z,98894.63
2023-05-10T07:11:27.779Z,98898.31
2023-05-10T07:13:54.165Z,98904.78
2023-05-10T07:16:20.788Z,98899.22
2023-05-10T07:18:47.327Z,98892.13
2023-05-10T07:21:13.866Z,98907.78
2023-05-10T07:23:41.634Z,98905.88
2023-05-10T07:26:10.411Z,98902.44
2023-05-10T07:28:38.419Z,98910.75
2023-05-10T07:31:04.904Z,98910.66
2023-05-10T07:33:31.350Z,98916.63
2023-05-10T07:35:57.746Z,98917.19
2023-05-10T07:38:24.407Z,98920.41
2023-05-10T07:40:50.823Z,98909.75
2023-05-10T07:43:17.225Z,98919.31
2023-05-10T07:45:44.253Z,98920.97
2023-05-10T07:48:10.927Z,98918.50
2023-05-10T07:50:37.369Z,98918.41
2023-05-10T07:53:03.795Z,98928.97
2023-05-10T07:55:30.275Z,98926.31
2023-05-10T07:57:56.981Z,98921.25
2023-05-10T08:00:23.417Z,98923.72
2023-05-10T08:02:49.931Z,98924.03
2023-05-10T08:05:16.684Z,98922.56
2023-05-10T08:07:43.446Z,98927.72
2023-05-10T08:10:10.525Z,98933.34
2023-05-10T08:12:37.060Z,98933.06
2023-05-10T08:15:04.268Z,98931.16
2023-05-10T08:17:30.708Z,98932.28
2023-05-10T08:19:57.170Z,98928.91
2023-05-10T08:22:23.772Z,98919.88
2023-05-10T08:24:50.260Z,98938.09
2023-05-10T08:27:16.773Z,98939.63
2023-05-10T08:29:50.125Z,98933.66
2023-05-10T08:32:17.106Z,98933.19
2023-05-10T08:34:43.594Z,98936.03
2023-05-10T08:37:11.521Z,98944.88
2023-05-10T08:39:38.272Z,98947.94
2023-05-10T08:42:05.888Z,98958.16
2023-05-10T08:44:33.611Z,98953.44
2023-05-10T08:47:00.801Z,98959.78
2023-05-10T08:49:28.470Z,98960.88
2023-05-10T08:51:55.915Z,98959.31
2023-05-10T08:54:22.975Z,98966.72
2023-05-10T08:56:49.884Z,98973.88
2023-05-10T08:59:16.877Z,98977.56
2023-05-10T09:01:45.019Z,98972.63
2023-05-10T09:04:13.028Z,98970.53
2023-05-10T09:06:39.592Z,98968.13
2023-05-10T09:09:06.020Z,98967.84
2023-05-10T09:11:33.029Z,98969.97
2023-05-10T09:13:59.433Z,98971.44
2023-05-10T09:16:26.027Z,98982.44
2023-05-10T09:18:52.505Z,98976.00
2023-05-10T09:21:20.666Z,98989.06
2023-05-10T09:23:48.706Z,98986.59
2023-05-10T09:26:15.356Z,98988.44
2023-05-10T09:28:56.865Z,98991.41
2023-05-10T09:31:24.618Z,98994.81
2023-05-10T09:33:51.780Z,98996.13
2023-05-10T09:36:18.538Z,98988.91
2023-05-10T09:38:49.161Z,98999.19
2023-05-10T09:41:19.126Z,98997.81
2023-05-10T09:43:45.563Z,98990.81
2023-05-10T09:46:12.462Z,99001.28
2023-05-10T09:48:46.586Z,98997.09
2023-05-10T09:51:24.637Z,99007.28
2023-05-10T09:54:14.314Z,98998.97
2023-05-10T09:56:41.641Z,98998.41
2023-05-10T09:59:11.107Z,98999.22
2023-05-10T10:01:38.397Z,99002.25
2023-05-10T10:04:06.304Z,99008.00
2023-05-10T10:06:39.568Z,99005.94
2023-05-10T10:09:07.305Z,99000.72
2023-05-10T10:11:35.950Z,98992.59
2023-05-10T10:14:02.377Z,98996.16
2023-05-10T10:16:32.662Z,98991.09
2023-05-10T10:18:59.614Z,98984.56
2023-05-10T10:21:26.620Z,98999.56
2023-05-10T10:23:54.025Z,98997.75
2023-05-10T10:26:22.009Z,98998.88
2023-05-10T10:29:09.827Z,99008.00
2023-05-10T10:31:42.932Z,99000.34
2023-05-10T10:34:17.278Z,99000.22
2023-05-10T10:36:48.019Z,99005.28
2023-05-10T10:39:15.191Z,99006.28
2023-05-10T10:41:51.570Z,99010.78
2023-05-10T10:44:27.327Z,99008.69
2023-05-10T10:47:25.794Z,99013.41
2023-05-10T10:49:53.493Z,99005.97
2023-05-10T10:52:32.153Z,99000.78
2023-05-10T10:55:03.616Z,99006.94
2023-05-10T10:57:33.246Z,99010.88
2023-05-10T11:00:25.753Z,99006.81
2023-05-10T11:03:07.276Z,99016.91
2023-05-10T11:05:33.679Z,99014.00
2023-05-10T11:08:01.280Z,99015.34
2023-05-10T11:10:28.128Z,99019.59
2023-05-10T11:13:07.678Z,99015.88
2023-05-10T11:15:36.706Z,99005.06
2023-05-10T11:18:25.347Z,99018.78
2023-05-10T11:20:53.311Z,99014.31
2023-05-10T11:23:20.905Z,99013.31
2023-05-10T11:25:48.729Z,99011.88
2023-05-10T11:28:15.569Z,99011.09
2023-05-10T11:30:43.049Z,99014.91
2023-05-10T11:33:09.955Z,99009.47
2023-05-10T11:35:42.985Z,99007.53
2023-05-10T11:38:11.323Z,99001.75
2023-05-10T11:40:38.731Z,99007.81
2023-05-10T11:43:06.620Z,99005.16
2023-05-10T11:45:34.037Z,99006.88
2023-05-10T11:48:00.737Z,99002.88
2023-05-10T11:50:27.510Z,99001.34
2023-05-10T11:52:55.058Z,99002.63
2023-05-10T11:55:21.608Z,99000.78
2023-05-10T11:57:48.656Z,98989.09
2023-05-10T12:00:15.623Z,98992.78
2023-05-10T12:02:42.456Z,98995.72
2023-05-10T12:05:09.554Z,98996.06
2023-05-10T12:07:36.261Z,98993.31
2023-05-10T12:10:19.218Z,98993.94
2023-05-10T12:12:48.383Z,98991.72
2023-05-10T12:15:19.615Z,98990.81
2023-05-10T12:17:47.141Z,98985.38
2023-05-10T12:20:15.792Z,98986.09
2023-05-10T12:22:45.786Z,98986.41
2023-05-10T12:25:12.317Z,98984.06
2023-05-10T12:27:38.756Z,98991.53
2023-05-10T12:30:05.703Z,98982.66
2023-05-10T12:32:42.259Z,98993.03
2023-05-10T12:35:09.574Z,98991.50
2023-05-10T12:37:39.728Z,98987.31
2023-05-10T12:40:10.666Z,98987.44
2023-05-10T12:42:37.812Z,98990.38
2023-05-10T12:45:05.248Z,98989.81
2023-05-10T12:47:32.384Z,98989.28
2023-05-10T12:49:59.080Z,98986.13
2023-05-10T12:52:26.977Z,98986.72
2023-05-10T12:54:53.931Z,98982.53
2023-05-10T12:57:23.416Z,98981.78
2023-05-10T12:59:49.913Z,98986.19
2023-05-10T13:02:18.807Z,98981.09
2023-05-10T13:04:48.771Z,98977.28
2023-05-10T13:07:16.078Z,98975.72
2023-05-10T13:09:42.522Z,98975.44
2023-05-10T13:12:10.132Z,98974.03
2023-05-10T13:14:36.926Z,98977.53
2023-05-10T13:17:03.538Z,98964.78
2023-05-10T13:19:30.061Z,98973.44
2023-05-10T13:21:56.540Z,98972.88
2023-05-10T13:24:23.348Z,98974.53
2023-05-10T13:26:50.312Z,98978.47
2023-05-10T13:29:18.889Z,98974.00
2023-05-10T13:31:45.428Z,98978.81
2023-05-10T13:34:12.029Z,98982.78
2023-05-10T13:36:39.054Z,98971.94
2023-05-10T13:39:06.357Z,98974.53
2023-05-10T13:41:32.877Z,98977.66
2023-05-10T13:43:59.355Z,98977.63
2023-05-10T13:46:25.857Z,98976.06
2023-05-10T13:48:52.388Z,98978.19
2023-05-10T13:51:18.841Z,98980.91
2023-05-10T13:53:45.327Z,98987.81
2023-05-10T13:56:11.884Z,98971.44
2023-05-10T13:58:38.412Z,98976.41
2023-05-10T14:01:05.823Z,98968.63
2023-05-10T14:03:32.332Z,98970.06
2023-05-10T14:05:58.989Z,98963.75
2023-05-10T14:08:25.481Z,98960.72
2023-05-10T14:10:53.220Z,98964.50
2023-05-10T14:13:19.673Z,98952.38
2023-05-10T14:15:46.150Z,98956.59
2023-05-10T14:18:12.576Z,98959.16
2023-05-10T14:20:39.001Z,98956.72
2023-05-10T14:23:05.452Z,98961.88
2023-05-10T14:25:31.998Z,98966.19
2023-05-10T14:27:58.405Z,98966.22
2023-05-10T14:30:24.879Z,98966.00
2023-05-10T14:32:51.585Z,98976.19
2023-05-10T14:35:19.657Z,98982.13
2023-05-10T14:37:46.564Z,98982.03
2023-05-10T14:40:13.632Z,98979.41
2023-05-10T14:42:40.065Z,98982.81
2023-05-10T14:45:06.906Z,98987.88
2023-05-10T14:47:33.363Z,98992.84
2023-05-10T14:50:00.014Z,98989.88
2023-05-10T14:52:26.725Z,98995.16
2023-05-10T14:54:53.224Z,98983.50
2023-05-10T14:57:19.613Z,98982.19
2023-05-10T14:59:46.213Z,98975.25
2023-05-10T15:02:14.473Z,98977.41
2023-05-10T15:04:41.309Z,98972.56
2023-05-10T15:07:08.147Z,98982.88
2023-05-10T15:09:34.563Z,98971.75
2023-05-10T15:12:01.489Z,98981.16
2023-05-10T15:14:27.935Z,98973.44
2023-05-10T15:16:54.360Z,98972.97
2023-05-10T15:19:21.007Z,98976.94
2023-05-10T15:21:48.237Z,98976.19
2023-05-10T15:24:15.442Z,98974.47
2023-05-10T15:26:41.986Z,98979.97
2023-05-10T15:29:08.750Z,98976.88
2023-05-10T15:31:38.114Z,98971.34
2023-05-10T15:34:04.666Z,98969.13
2023-05-10T15:36:32.795Z,98975.34
2023-05-10T15:38:59.182Z,98977.75
2023-05-10T15:41:26.041Z,98983.31
2023-05-10T15:43:52.678Z,98987.97
2023-05-10T15:46:19.130Z,98988.16
2023-05-10T15:48:45.604Z,98985.03
2023-05-10T15:51:12.520Z,98988.44
2023-05-10T15:53:42.450Z,98980.72
2023-05-10T15:56:13.377Z,98974.88
2023-05-10T15:58:40.703Z,98975.38
2023-05-10T16:01:07.516Z,98978.06
2023-05-10T16:03:37.275Z,98971.03
2023-05-10T16:06:04.207Z,98976.22
2023-05-10T16:08:30.812Z,98978.69
2023-05-10T16:10:57.294Z,98980.84
2023-05-10T16:13:23.845Z,98986.47
2023-05-10T16:15:50.235Z,98981.41
2023-05-10T16:18:17.826Z,98984.00
2023-05-10T16:20:44.663Z,98975.84
2023-05-10T16:23:11.403Z,98979.81
2023-05-10T16:25:38.030Z,98973.00
2023-05-10T16:28:04.524Z,98980.28
2023-05-10T16:30:31.108Z,98981.41
2023-05-10T16:32:58.158Z,98979.75
2023-05-10T16:35:24.853Z,98986.88
2023-05-10T16:37:51.250Z,98980.94
2023-05-10T16:40:18.384Z,98979.13
2023-05-10T16:42:44.770Z,98986.00
2023-05-10T16:45:11.726Z,98982.81
2023-05-10T16:47:39.005Z,98989.88
2023-05-10T16:50:07.201Z,98987.28
2023-05-10T16:52:34.868Z,98990.91
2023-05-10T16:55:01.333Z,98990.38
2023-05-10T16:57:27.985Z,98988.25
2023-05-10T16:59:54.523Z,98987.84
2023-05-10T17:02:21.526Z,98995.78
2023-05-10T17:04:47.989Z,98988.66
2023-05-10T17:07:14.612Z,98988.28
2023-05-10T17:09:44.435Z,98986.06
2023-05-10T17:12:10.923Z,98989.19
2023-05-10T17:14:38.120Z,98991.09
2023-05-10T17:17:04.669Z,98994.59
2023-05-10T17:19:31.242Z,98991.94
2023-05-10T17:21:57.668Z,98994.94
2023-05-10T17:24:24.120Z,98997.25
2023-05-10T17:26:50.651Z,98999.94
2023-05-10T17:29:17.172Z,98998.41
2023-05-10T17:31:43.687Z,99001.84
2023-05-10T17:34:10.228Z,99001.28
2023-05-10T17:36:36.665Z,99005.53
2023-05-10T17:39:03.169Z,99006.47
2023-05-10T17:41:29.647Z,99008.28
2023-05-10T17:43:56.043Z,99010.63
2023-05-10T17:46:22.833Z,99009.72
2023-05-10T17:48:49.415Z,99011.53
2023-05-10T17:51:15.829Z,99013.72
2023-05-10T17:53:42.346Z,99015.88
2023-05-10T17:56:09.514Z,99022.66
2023-05-10T17:58:38.260Z,99018.44
2023-05-10T18:01:05.313Z,99026.63
2023-05-10T18:03:31.942Z,99022.94
2023-05-10T18:05:58.357Z,99020.41
2023-05-10T18:08:27.175Z,99027.25
2023-05-10T18:10:53.564Z,99033.09
2023-05-10T18:13:20.107Z,99030.25
2023-05-10T18:15:46.873Z,99021.66
2023-05-10T18:18:13.310Z,99031.47
2023-05-10T18:20:40.122Z,99034.94
2023-05-10T18:23:06.670Z,99032.38
2023-05-10T18:25:33.108Z,99022.56
2023-05-10T18:27:59.531Z,99029.25
2023-05-10T18:30:26.126Z,99024.03
2023-05-10T18:32:52.753Z,99024.66
2023-05-10T18:35:19.513Z,99032.34
2023-05-10T18:37:46.125Z,99028.31
2023-05-10T18:40:14.538Z,99027.19
2023-05-10T18:42:44.134Z,99027.84
2023-05-10T18:45:11.637Z,99032.00
2023-05-10T18:47:38.050Z,99032.13
2023-05-10T18:50:07.682Z,99035.81
2023-05-10T18:52:34.205Z,99031.91
2023-05-10T18:55:01.169Z,99033.84
2023-05-10T18:57:27.711Z,99042.59
2023-05-10T18:59:54.434Z,99038.63
2023-05-10T19:02:20.890Z,99045.38
2023-05-10T19:04:47.310Z,99044.34
2023-05-10T19:07:13.811Z,99044.94
2023-05-10T19:09:40.304Z,99043.72
2023-05-10T19:12:06.783Z,99042.53
2023-05-10T19:14:33.235Z,99049.84
2023-05-10T19:17:01.457Z,99053.19
2023-05-10T19:19:28.415Z,99056.19
2023-05-10T19:21:54.940Z,99055.53
2023-05-10T19:24:23.320Z,99051.09
2023-05-10T19:26:49.924Z,99063.13
2023-05-10T19:29:16.502Z,99064.84
2023-05-10T19:31:44.212Z,99063.03
2023-05-10T19:34:11.433Z,99064.31
2023-05-10T19:36:38.020Z,99069.25
2023-05-10T19:39:04.563Z,99073.28
2023-05-10T19:41:31.113Z,99072.69
2023-05-10T19:43:57.689Z,99083.69
2023-05-10T19:46:24.176Z,99073.09
2023-05-10T19:48:50.720Z,99087.72
2023-05-10T19:51:17.231Z,99089.28
2023-05-10T19:53:44.606Z,99090.09
2023-05-10T19:56:11.442Z,99090.66
2023-05-10T19:58:38.007Z,99092.72
2023-05-10T20:01:07.359Z,99101.88
2023-05-10T20:03:34.672Z,99099.03
2023-05-10T20:06:01.711Z,99107.03
2023-05-10T20:08:28.543Z,99102.78
2023-05-10T20:10:55.001Z,99105.84
2023-05-10T20:13:21.468Z,99110.72
2023-05-10T20:15:47.936Z,99110.41
2023-05-10T20:18:14.360Z,99117.44
2023-05-10T20:20:40.933Z,99115.69
2023-05-10T20:23:07.445Z,99111.13
2023-05-10T20:25:33.878Z,99119.81
2023-05-10T20:28:00.672Z,99120.69
2023-05-10T20:30:27.160Z,99120.25
2023-05-10T20:32:53.661Z,99125.97
2023-05-10T20:35:20.122Z,99120.16
2023-05-10T20:37:48.290Z,99124.75
2023-05-10T20:40:14.887Z,99127.19
2023-05-10T20:42:41.686Z,99135.41
2023-05-10T20:45:08.786Z,99134.84
2023-05-10T20:47:35.698Z,99131.09
2023-05-10T20:50:02.239Z,99132.84
2023-05-10T20:52:28.707Z,99123.75
2023-05-10T20:54:55.170Z,99121.31
2023-05-10T20:57:21.647Z,99129.53
2023-05-10T20:59:49.697Z,99118.44
2023-05-10T21:02:16.551Z,99127.97
2023-05-10T21:04:43.292Z,99117.06
2023-05-10T21:07:09.787Z,99121.72
2023-05-10T21:09:36.267Z,99116.69
2023-05-10T21:12:03.336Z,99116.56
2023-05-10T21:14:30.766Z,99119.88
2023-05-10T21:16:57.188Z,99115.81
2023-05-10T21:19:23.602Z,99117.06
2023-05-10T21:21:50.081Z,99114.50
2023-05-10T21:24:16.913Z,99116.38
2023-05-10T21:26:43.820Z,99112.47
2023-05-10T21:29:10.287Z,99107.13
2023-05-10T21:31:36.764Z,99118.38
2023-05-10T21:34:03.541Z,99116.69
2023-05-10T21:36:30.020Z,99116.44
2023-05-10T21:38:56.466Z,99105.91
2023-05-10T21:41:23.004Z,99105.13
2023-05-10T21:43:49.476Z,99105.34
2023-05-10T21:46:15.926Z,99109.22
2023-05-10T21:48:42.464Z,99097.06
2023-05-10T21:51:09.471Z,99105.53
2023-05-10T21:53:37.374Z,99110.81
2023-05-10T21:56:03.847Z,99099.16
2023-05-10T21:58:30.219Z,99104.41
2023-05-10T22:00:57.771Z,99106.13
2023-05-10T22:03:24.350Z,99105.22
2023-05-10T22:05:50.822Z,99115.38
2023-05-10T22:08:17.310Z,99119.84
2023-05-10T22:10:44.030Z,99110.00
2023-05-10T22:13:10.586Z,99111.06
2023-05-10T22:15:36.996Z,99107.41
2023-05-10T22:18:03.787Z,99109.56
2023-05-10T22:20:30.282Z,99113.34
2023-05-10T22:22:56.740Z,99116.44
2023-05-10T22:25:23.165Z,99120.81
2023-05-10T22:27:49.616Z,99114.63
2023-05-10T22:30:16.420Z,99120.41
2023-05-10T22:32:43.150Z,99115.34
2023-05-10T22:35:09.702Z,99115.41
2023-05-10T22:37:38.513Z,99121.84
2023-05-10T22:40:05.897Z,99129.66
2023-05-10T22:42:32.441Z,99127.97
2023-05-10T22:44:58.837Z,99129.84
2023-05-10T22:47:25.527Z,99126.47
2023-05-10T22:49:52.156Z,99130.81
2023-05-10T22:52:18.592Z,99134.19
2023-05-10T22:54:45.131Z,99135.53
2023-05-10T22:57:11.926Z,99136.06
2023-05-10T22:59:38.443Z,99137.97
2023-05-10T23:02:05.171Z,99136.13
2023-05-10T23:04:31.657Z,99137.97
2023-05-10T23:06:58.116Z,99139.13
2023-05-10T23:09:24.539Z,99146.38
2023-05-10T23:11:50.966Z,99154.84
2023-05-10T23:14:17.389Z,99149.56
2023-05-10T23:16:43.921Z,99160.47
2023-05-10T23:19:10.578Z,99161.97
2023-05-10T23:21:37.002Z,99169.22
2023-05-10T23:24:03.562Z,99163.06
2023-05-10T23:26:30.043Z,99160.91
2023-05-10T23:28:56.467Z,99156.00
2023-05-10T23:31:22.917Z,99162.41
2023-05-10T23:33:49.289Z,99149.94
2023-05-10T23:36:15.728Z,99164.81
2023-05-10T23:38:42.173Z,99163.44
2023-05-10T23:41:08.622Z,99156.22
2023-05-10T23:43:35.015Z,99150.94
2023-05-10T23:46:01.704Z,99150.28
2023-05-10T23:48:28.308Z,99147.41
2023-05-10T23:50:54.799Z,99149.19
2023-05-10T23:53:21.268Z,99148.69
2023-05-10T23:55:47.690Z,99151.63
2023-05-10T23:58:14.124Z,99152.25
